Ithaca, New York
Current Conditions -  °F | °C
As of 7:56 PM on Tuesday 27 Jan 2015 (Local Time) from KITH Reporting Station
Few Clouds Few Clouds  
Wind Chill: -19°   Ceiling: Unl
Heat Index: -13°   Visibility: 10mi
Dew Point: -16°   Wind: 8mph
Humidity: 76%   Direction: 340°NNW
Pressure: 29.97"   Gusts: NA
Location:  42.44°N, 76.49°W
Report Text: KITH 280056Z 34007KT 10SM FEW020 M13/M16 A2997 RMK AO2 T11271161 SLP172
Loading
Personal Weather Stations






























Interactive Weather Map New forecast layout! Learn more

10-Day Weather Forecast

Advertisements
Track Severe Weather on mobile